sensor_id;sensor_type;location;lat;lon;timestamp;P1;durP1;ratioP1;P2;durP2;ratioP2
25249;SDS011;13201;51.148;13.738;2022-09-13T00:00:55;2.80;;;2.17;;
25249;SDS011;13201;51.148;13.738;2022-09-13T00:03:21;2.33;;;1.97;;
25249;SDS011;13201;51.148;13.738;2022-09-13T00:05:47;3.90;;;2.45;;
25249;SDS011;13201;51.148;13.738;2022-09-13T00:08:13;3.28;;;2.20;;
25249;SDS011;13201;51.148;13.738;2022-09-13T00:10:39;3.28;;;1.90;;
25249;SDS011;13201;51.148;13.738;2022-09-13T00:13:07;2.63;;;2.13;;
25249;SDS011;13201;51.148;13.738;2022-09-13T00:18:00;3.00;;;2.22;;
25249;SDS011;13201;51.148;13.738;2022-09-13T00:20:26;5.38;;;2.25;;
25249;SDS011;13201;51.148;13.738;2022-09-13T00:22:52;3.58;;;2.22;;
25249;SDS011;13201;51.148;13.738;2022-09-13T00:25:18;2.80;;;2.10;;
25249;SDS011;13201;51.148;13.738;2022-09-13T00:27:44;5.10;;;2.30;;
25249;SDS011;13201;51.148;13.738;2022-09-13T00:30:10;3.63;;;2.00;;
25249;SDS011;13201;51.148;13.738;2022-09-13T00:32:36;2.80;;;2.20;;
25249;SDS011;13201;51.148;13.738;2022-09-13T00:35:03;2.72;;;2.17;;
25249;SDS011;13201;51.148;13.738;2022-09-13T00:37:30;3.67;;;2.30;;
25249;SDS011;13201;51.148;13.738;2022-09-13T00:39:57;2.88;;;2.10;;
25249;SDS011;13201;51.148;13.738;2022-09-13T00:42:24;3.40;;;2.08;;
25249;SDS011;13201;51.148;13.738;2022-09-13T00:45:00;9.02;;;2.28;;
25249;SDS011;13201;51.148;13.738;2022-09-13T00:47:39;5.60;;;2.42;;
25249;SDS011;13201;51.148;13.738;2022-09-13T00:52:45;3.40;;;2.20;;
25249;SDS011;13201;51.148;13.738;2022-09-13T00:57:58;2.97;;;2.25;;
25249;SDS011;13201;51.148;13.738;2022-09-13T01:00:28;3.72;;;2.05;;
25249;SDS011;13201;51.148;13.738;2022-09-13T01:02:54;2.92;;;2.35;;
25249;SDS011;13201;51.148;13.738;2022-09-13T01:05:25;4.03;;;2.33;;
25249;SDS011;13201;51.148;13.738;2022-09-13T01:32:06;5.57;;;2.78;;
25249;SDS011;13201;51.148;13.738;2022-09-13T01:40:04;5.05;;;2.60;;
25249;SDS011;13201;51.148;13.738;2022-09-13T01:43:10;3.00;;;2.25;;
25249;SDS011;13201;51.148;13.738;2022-09-13T01:45:49;3.20;;;2.30;;
25249;SDS011;13201;51.148;13.738;2022-09-13T01:59:21;3.33;;;2.50;;
25249;SDS011;13201;51.148;13.738;2022-09-13T02:02:02;2.80;;;2.35;;
25249;SDS011;13201;51.148;13.738;2022-09-13T02:07:42;3.88;;;2.30;;
25249;SDS011;13201;51.148;13.738;2022-09-13T02:10:16;5.75;;;3.10;;
25249;SDS011;13201;51.148;13.738;2022-09-13T02:12:57;3.35;;;2.65;;
25249;SDS011;13201;51.148;13.738;2022-09-13T02:15:28;2.85;;;2.10;;
25249;SDS011;13201;51.148;13.738;2022-09-13T02:18:06;3.65;;;2.35;;
25249;SDS011;13201;51.148;13.738;2022-09-13T02:20:35;4.68;;;3.03;;
25249;SDS011;13201;51.148;13.738;2022-09-13T02:23:10;2.88;;;2.42;;
25249;SDS011;13201;51.148;13.738;2022-09-13T02:25:49;2.93;;;2.30;;
25249;SDS011;13201;51.148;13.738;2022-09-13T02:28:20;4.15;;;2.60;;
25249;SDS011;13201;51.148;13.738;2022-09-13T02:30:51;3.33;;;2.40;;
25249;SDS011;13201;51.148;13.738;2022-09-13T02:35:57;2.70;;;2.33;;
25249;SDS011;13201;51.148;13.738;2022-09-13T02:38:28;2.85;;;2.28;;
25249;SDS011;13201;51.148;13.738;2022-09-13T02:41:16;3.13;;;2.08;;
25249;SDS011;13201;51.148;13.738;2022-09-13T02:43:49;2.78;;;2.22;;
25249;SDS011;13201;51.148;13.738;2022-09-13T02:46:20;4.30;;;2.60;;
25249;SDS011;13201;51.148;13.738;2022-09-13T02:51:55;3.63;;;2.40;;
25249;SDS011;13201;51.148;13.738;2022-09-13T02:54:32;3.67;;;2.60;;
25249;SDS011;13201;51.148;13.738;2022-09-13T02:57:31;3.72;;;2.53;;
25249;SDS011;13201;51.148;13.738;2022-09-13T03:00:07;2.67;;;2.17;;
25249;SDS011;13201;51.148;13.738;2022-09-13T03:02:33;3.70;;;2.30;;
25249;SDS011;13201;51.148;13.738;2022-09-13T03:05:00;4.93;;;2.50;;
25249;SDS011;13201;51.148;13.738;2022-09-13T03:07:26;2.47;;;1.90;;
25249;SDS011;13201;51.148;13.738;2022-09-13T03:10:00;3.33;;;2.42;;
25249;SDS011;13201;51.148;13.738;2022-09-13T03:12:43;4.05;;;2.58;;
25249;SDS011;13201;51.148;13.738;2022-09-13T03:24:07;6.38;;;2.92;;
25249;SDS011;13201;51.148;13.738;2022-09-13T03:29:39;4.10;;;2.70;;
25249;SDS011;13201;51.148;13.738;2022-09-13T03:32:15;3.58;;;2.75;;
25249;SDS011;13201;51.148;13.738;2022-09-13T03:40:21;3.50;;;2.80;;
25249;SDS011;13201;51.148;13.738;2022-09-13T03:43:23;3.10;;;2.58;;
25249;SDS011;13201;51.148;13.738;2022-09-13T03:45:59;5.55;;;3.15;;
25249;SDS011;13201;51.148;13.738;2022-09-13T03:48:39;3.55;;;2.60;;
25249;SDS011;13201;51.148;13.738;2022-09-13T03:51:07;3.78;;;2.80;;
25249;SDS011;13201;51.148;13.738;2022-09-13T03:53:35;3.58;;;2.50;;
25249;SDS011;13201;51.148;13.738;2022-09-13T03:56:14;4.13;;;2.70;;
25249;SDS011;13201;51.148;13.738;2022-09-13T03:58:42;3.58;;;2.45;;
25249;SDS011;13201;51.148;13.738;2022-09-13T04:01:08;4.78;;;2.50;;
25249;SDS011;13201;51.148;13.738;2022-09-13T04:03:36;5.53;;;2.85;;
25249;SDS011;13201;51.148;13.738;2022-09-13T04:06:03;3.72;;;2.58;;
25249;SDS011;13201;51.148;13.738;2022-09-13T04:08:30;4.00;;;2.63;;
25249;SDS011;13201;51.148;13.738;2022-09-13T04:10:57;3.30;;;2.67;;
25249;SDS011;13201;51.148;13.738;2022-09-13T04:13:22;5.57;;;2.75;;
25249;SDS011;13201;51.148;13.738;2022-09-13T04:15:48;4.00;;;2.53;;
25249;SDS011;13201;51.148;13.738;2022-09-13T04:18:14;6.25;;;2.70;;
25249;SDS011;13201;51.148;13.738;2022-09-13T04:20:40;4.75;;;2.40;;
25249;SDS011;13201;51.148;13.738;2022-09-13T04:23:06;5.25;;;2.70;;
25249;SDS011;13201;51.148;13.738;2022-09-13T04:25:31;3.63;;;2.60;;
25249;SDS011;13201;51.148;13.738;2022-09-13T04:27:57;3.90;;;2.85;;
25249;SDS011;13201;51.148;13.738;2022-09-13T04:30:26;5.00;;;2.50;;
25249;SDS011;13201;51.148;13.738;2022-09-13T04:32:52;3.73;;;2.50;;
25249;SDS011;13201;51.148;13.738;2022-09-13T04:35:20;4.90;;;2.97;;
25249;SDS011;13201;51.148;13.738;2022-09-13T04:37:46;4.05;;;2.83;;
25249;SDS011;13201;51.148;13.738;2022-09-13T04:40:11;4.22;;;2.95;;
25249;SDS011;13201;51.148;13.738;2022-09-13T04:42:38;5.45;;;2.92;;
25249;SDS011;13201;51.148;13.738;2022-09-13T04:45:04;3.70;;;2.60;;
25249;SDS011;13201;51.148;13.738;2022-09-13T04:47:30;4.93;;;2.30;;
25249;SDS011;13201;51.148;13.738;2022-09-13T04:49:56;3.85;;;2.75;;
25249;SDS011;13201;51.148;13.738;2022-09-13T04:52:22;6.68;;;2.90;;
25249;SDS011;13201;51.148;13.738;2022-09-13T04:54:47;3.25;;;2.67;;
25249;SDS011;13201;51.148;13.738;2022-09-13T04:57:14;5.10;;;3.35;;
25249;SDS011;13201;51.148;13.738;2022-09-13T04:59:40;3.90;;;2.70;;
25249;SDS011;13201;51.148;13.738;2022-09-13T05:02:06;4.63;;;2.70;;
25249;SDS011;13201;51.148;13.738;2022-09-13T05:04:32;5.45;;;2.80;;
25249;SDS011;13201;51.148;13.738;2022-09-13T05:06:57;5.78;;;3.00;;
25249;SDS011;13201;51.148;13.738;2022-09-13T05:09:23;4.55;;;3.00;;
25249;SDS011;13201;51.148;13.738;2022-09-13T05:11:49;5.68;;;2.97;;
25249;SDS011;13201;51.148;13.738;2022-09-13T05:14:15;3.97;;;2.78;;
25249;SDS011;13201;51.148;13.738;2022-09-13T05:16:40;6.03;;;3.20;;
25249;SDS011;13201;51.148;13.738;2022-09-13T05:19:06;4.30;;;3.00;;
25249;SDS011;13201;51.148;13.738;2022-09-13T05:21:33;6.10;;;2.85;;
25249;SDS011;13201;51.148;13.738;2022-09-13T05:23:59;5.05;;;3.15;;
25249;SDS011;13201;51.148;13.738;2022-09-13T05:26:25;3.95;;;2.80;;
25249;SDS011;13201;51.148;13.738;2022-09-13T05:28:54;4.38;;;2.97;;
25249;SDS011;13201;51.148;13.738;2022-09-13T05:31:22;4.40;;;3.00;;
25249;SDS011;13201;51.148;13.738;2022-09-13T05:33:57;5.82;;;3.30;;
25249;SDS011;13201;51.148;13.738;2022-09-13T05:36:24;11.93;;;3.13;;
25249;SDS011;13201;51.148;13.738;2022-09-13T05:38:54;4.57;;;2.85;;
25249;SDS011;13201;51.148;13.738;2022-09-13T05:41:20;5.47;;;2.90;;
25249;SDS011;13201;51.148;13.738;2022-09-13T05:43:46;5.05;;;3.08;;
25249;SDS011;13201;51.148;13.738;2022-09-13T05:46:13;5.93;;;2.88;;
25249;SDS011;13201;51.148;13.738;2022-09-13T05:48:40;4.82;;;3.15;;
25249;SDS011;13201;51.148;13.738;2022-09-13T05:51:06;4.18;;;2.72;;
25249;SDS011;13201;51.148;13.738;2022-09-13T05:53:34;3.70;;;2.95;;
25249;SDS011;13201;51.148;13.738;2022-09-13T05:56:03;5.22;;;3.20;;
25249;SDS011;13201;51.148;13.738;2022-09-13T05:58:29;4.47;;;3.50;;
25249;SDS011;13201;51.148;13.738;2022-09-13T06:00:55;4.80;;;3.13;;
25249;SDS011;13201;51.148;13.738;2022-09-13T06:03:22;7.85;;;3.45;;
25249;SDS011;13201;51.148;13.738;2022-09-13T06:05:48;7.63;;;3.17;;
25249;SDS011;13201;51.148;13.738;2022-09-13T06:08:14;4.50;;;3.00;;
25249;SDS011;13201;51.148;13.738;2022-09-13T06:10:40;9.00;;;3.63;;
25249;SDS011;13201;51.148;13.738;2022-09-13T06:13:05;4.72;;;3.33;;
25249;SDS011;13201;51.148;13.738;2022-09-13T06:15:31;4.00;;;3.13;;
25249;SDS011;13201;51.148;13.738;2022-09-13T06:17:57;4.72;;;2.88;;
25249;SDS011;13201;51.148;13.738;2022-09-13T06:20:23;4.13;;;2.97;;
25249;SDS011;13201;51.148;13.738;2022-09-13T06:22:49;5.38;;;3.22;;
25249;SDS011;13201;51.148;13.738;2022-09-13T06:25:15;5.97;;;3.28;;
25249;SDS011;13201;51.148;13.738;2022-09-13T06:27:41;4.80;;;3.27;;
25249;SDS011;13201;51.148;13.738;2022-09-13T06:30:07;6.60;;;3.35;;
25249;SDS011;13201;51.148;13.738;2022-09-13T06:32:33;6.57;;;3.30;;
25249;SDS011;13201;51.148;13.738;2022-09-13T06:34:59;5.65;;;2.92;;
25249;SDS011;13201;51.148;13.738;2022-09-13T06:37:25;4.00;;;2.88;;
25249;SDS011;13201;51.148;13.738;2022-09-13T06:39:51;5.32;;;3.33;;
25249;SDS011;13201;51.148;13.738;2022-09-13T06:42:16;5.35;;;3.35;;
25249;SDS011;13201;51.148;13.738;2022-09-13T06:44:42;4.45;;;3.30;;
25249;SDS011;13201;51.148;13.738;2022-09-13T06:47:10;6.10;;;3.15;;
25249;SDS011;13201;51.148;13.738;2022-09-13T06:49:36;4.83;;;3.23;;
25249;SDS011;13201;51.148;13.738;2022-09-13T06:52:01;6.40;;;3.45;;
25249;SDS011;13201;51.148;13.738;2022-09-13T06:54:27;3.80;;;3.20;;
25249;SDS011;13201;51.148;13.738;2022-09-13T06:56:53;6.95;;;3.40;;
25249;SDS011;13201;51.148;13.738;2022-09-13T06:59:18;5.32;;;3.33;;
25249;SDS011;13201;51.148;13.738;2022-09-13T07:01:44;5.22;;;3.58;;
25249;SDS011;13201;51.148;13.738;2022-09-13T07:04:14;4.47;;;3.33;;
25249;SDS011;13201;51.148;13.738;2022-09-13T07:06:42;5.70;;;3.30;;
25249;SDS011;13201;51.148;13.738;2022-09-13T07:09:11;5.57;;;3.42;;
25249;SDS011;13201;51.148;13.738;2022-09-13T07:11:39;4.72;;;3.38;;
25249;SDS011;13201;51.148;13.738;2022-09-13T07:14:06;4.88;;;3.38;;
25249;SDS011;13201;51.148;13.738;2022-09-13T07:16:33;6.05;;;3.70;;
25249;SDS011;13201;51.148;13.738;2022-09-13T07:19:02;5.03;;;3.38;;
25249;SDS011;13201;51.148;13.738;2022-09-13T07:21:29;5.22;;;3.53;;
25249;SDS011;13201;51.148;13.738;2022-09-13T07:23:56;12.13;;;3.30;;
25249;SDS011;13201;51.148;13.738;2022-09-13T07:26:22;4.60;;;3.25;;
25249;SDS011;13201;51.148;13.738;2022-09-13T07:28:50;4.18;;;3.03;;
25249;SDS011;13201;51.148;13.738;2022-09-13T07:31:18;5.70;;;3.10;;
25249;SDS011;13201;51.148;13.738;2022-09-13T07:33:54;5.78;;;3.63;;
25249;SDS011;13201;51.148;13.738;2022-09-13T07:36:22;5.60;;;3.30;;
25249;SDS011;13201;51.148;13.738;2022-09-13T07:38:48;4.67;;;3.40;;
25249;SDS011;13201;51.148;13.738;2022-09-13T07:41:15;5.03;;;3.45;;
25249;SDS011;13201;51.148;13.738;2022-09-13T07:43:42;7.10;;;3.40;;
25249;SDS011;13201;51.148;13.738;2022-09-13T07:46:10;5.37;;;3.27;;
25249;SDS011;13201;51.148;13.738;2022-09-13T07:48:38;7.85;;;3.05;;
25249;SDS011;13201;51.148;13.738;2022-09-13T07:53:37;5.32;;;3.53;;
25249;SDS011;13201;51.148;13.738;2022-09-13T07:56:08;6.13;;;3.30;;
25249;SDS011;13201;51.148;13.738;2022-09-13T07:58:36;6.65;;;4.00;;
25249;SDS011;13201;51.148;13.738;2022-09-13T08:03:40;6.80;;;3.97;;
25249;SDS011;13201;51.148;13.738;2022-09-13T08:06:07;6.23;;;3.67;;
25249;SDS011;13201;51.148;13.738;2022-09-13T08:08:34;4.75;;;3.60;;
25249;SDS011;13201;51.148;13.738;2022-09-13T08:11:01;5.40;;;3.40;;
25249;SDS011;13201;51.148;13.738;2022-09-13T08:13:28;4.35;;;3.72;;
25249;SDS011;13201;51.148;13.738;2022-09-13T08:15:59;6.30;;;3.75;;
25249;SDS011;13201;51.148;13.738;2022-09-13T08:18:27;5.78;;;3.80;;
25249;SDS011;13201;51.148;13.738;2022-09-13T08:20:55;5.75;;;4.18;;
25249;SDS011;13201;51.148;13.738;2022-09-13T08:23:22;10.68;;;3.80;;
25249;SDS011;13201;51.148;13.738;2022-09-13T08:25:48;6.72;;;3.80;;
25249;SDS011;13201;51.148;13.738;2022-09-13T08:28:14;6.40;;;3.55;;
25249;SDS011;13201;51.148;13.738;2022-09-13T08:30:42;5.57;;;3.75;;
25249;SDS011;13201;51.148;13.738;2022-09-13T08:33:08;8.05;;;4.20;;
25249;SDS011;13201;51.148;13.738;2022-09-13T08:35:35;7.18;;;3.45;;
25249;SDS011;13201;51.148;13.738;2022-09-13T08:38:02;6.72;;;3.97;;
25249;SDS011;13201;51.148;13.738;2022-09-13T08:40:30;7.60;;;3.55;;
25249;SDS011;13201;51.148;13.738;2022-09-13T08:45:29;5.00;;;3.90;;
25249;SDS011;13201;51.148;13.738;2022-09-13T08:47:56;7.38;;;4.03;;
25249;SDS011;13201;51.148;13.738;2022-09-13T08:50:32;6.63;;;3.60;;
25249;SDS011;13201;51.148;13.738;2022-09-13T08:55:58;7.22;;;3.53;;
25249;SDS011;13201;51.148;13.738;2022-09-13T09:01:32;8.38;;;4.05;;
25249;SDS011;13201;51.148;13.738;2022-09-13T09:06:28;5.22;;;3.17;;
25249;SDS011;13201;51.148;13.738;2022-09-13T09:09:14;4.72;;;3.42;;
25249;SDS011;13201;51.148;13.738;2022-09-13T09:14:34;3.70;;;2.90;;
25249;SDS011;13201;51.148;13.738;2022-09-13T09:17:50;4.85;;;2.92;;
25249;SDS011;13201;51.148;13.738;2022-09-13T09:19:57;5.63;;;4.22;;
25249;SDS011;13201;51.148;13.738;2022-09-13T09:24:58;4.72;;;3.50;;
25249;SDS011;13201;51.148;13.738;2022-09-13T09:27:24;5.70;;;4.00;;
25249;SDS011;13201;51.148;13.738;2022-09-13T09:29:51;4.57;;;3.15;;
25249;SDS011;13201;51.148;13.738;2022-09-13T09:38:07;4.93;;;3.35;;
25249;SDS011;13201;51.148;13.738;2022-09-13T09:41:02;5.13;;;3.60;;
25249;SDS011;13201;51.148;13.738;2022-09-13T09:43:38;6.60;;;3.45;;
25249;SDS011;13201;51.148;13.738;2022-09-13T09:46:19;4.63;;;3.42;;
25249;SDS011;13201;51.148;13.738;2022-09-13T09:48:54;5.90;;;3.90;;
25249;SDS011;13201;51.148;13.738;2022-09-13T09:51:26;7.45;;;3.78;;
25249;SDS011;13201;51.148;13.738;2022-09-13T09:53:59;6.50;;;4.03;;
25249;SDS011;13201;51.148;13.738;2022-09-13T09:56:30;5.13;;;3.63;;
25249;SDS011;13201;51.148;13.738;2022-09-13T09:58:57;6.13;;;3.72;;
25249;SDS011;13201;51.148;13.738;2022-09-13T10:04:17;6.00;;;3.60;;
25249;SDS011;13201;51.148;13.738;2022-09-13T10:06:46;5.03;;;3.15;;
25249;SDS011;13201;51.148;13.738;2022-09-13T10:14:34;3.83;;;3.17;;
25249;SDS011;13201;51.148;13.738;2022-09-13T10:22:39;6.75;;;3.45;;
25249;SDS011;13201;51.148;13.738;2022-09-13T10:25:28;7.75;;;3.92;;
25249;SDS011;13201;51.148;13.738;2022-09-13T10:27:53;4.47;;;3.08;;
25249;SDS011;13201;51.148;13.738;2022-09-13T10:33:07;5.88;;;3.35;;
25249;SDS011;13201;51.148;13.738;2022-09-13T10:35:52;4.15;;;3.28;;
25249;SDS011;13201;51.148;13.738;2022-09-13T10:38:24;4.93;;;3.47;;
25249;SDS011;13201;51.148;13.738;2022-09-13T10:40:54;5.28;;;3.65;;
25249;SDS011;13201;51.148;13.738;2022-09-13T10:43:20;5.22;;;3.13;;
25249;SDS011;13201;51.148;13.738;2022-09-13T10:45:48;4.63;;;3.08;;
25249;SDS011;13201;51.148;13.738;2022-09-13T10:53:31;3.78;;;2.47;;
25249;SDS011;13201;51.148;13.738;2022-09-13T10:56:00;3.80;;;2.53;;
25249;SDS011;13201;51.148;13.738;2022-09-13T10:58:26;2.53;;;2.13;;
25249;SDS011;13201;51.148;13.738;2022-09-13T11:06:12;3.78;;;2.05;;
25249;SDS011;13201;51.148;13.738;2022-09-13T11:09:07;2.55;;;1.80;;
25249;SDS011;13201;51.148;13.738;2022-09-13T11:11:36;4.73;;;1.90;;
25249;SDS011;13201;51.148;13.738;2022-09-13T11:20:38;2.55;;;2.20;;
25249;SDS011;13201;51.148;13.738;2022-09-13T11:23:23;3.05;;;2.05;;
25249;SDS011;13201;51.148;13.738;2022-09-13T11:31:51;2.72;;;2.10;;
25249;SDS011;13201;51.148;13.738;2022-09-13T11:45:39;6.32;;;2.30;;
25249;SDS011;13201;51.148;13.738;2022-09-13T11:56:16;2.90;;;2.20;;
25249;SDS011;13201;51.148;13.738;2022-09-13T12:02:51;2.72;;;2.15;;
25249;SDS011;13201;51.148;13.738;2022-09-13T12:05:04;3.17;;;1.85;;
25249;SDS011;13201;51.148;13.738;2022-09-13T12:10:14;2.53;;;2.20;;
25249;SDS011;13201;51.148;13.738;2022-09-13T12:12:40;2.40;;;2.20;;
25249;SDS011;13201;51.148;13.738;2022-09-13T12:15:15;2.45;;;2.15;;
25249;SDS011;13201;51.148;13.738;2022-09-13T12:20:52;3.42;;;2.13;;
25249;SDS011;13201;51.148;13.738;2022-09-13T12:28:47;1.98;;;1.75;;
25249;SDS011;13201;51.148;13.738;2022-09-13T12:31:22;3.72;;;2.08;;
25249;SDS011;13201;51.148;13.738;2022-09-13T12:33:50;3.25;;;1.90;;
25249;SDS011;13201;51.148;13.738;2022-09-13T12:39:05;1.88;;;1.60;;
25249;SDS011;13201;51.148;13.738;2022-09-13T12:50:20;2.83;;;1.70;;
25249;SDS011;13201;51.148;13.738;2022-09-13T13:00:45;1.60;;;1.33;;
25249;SDS011;13201;51.148;13.738;2022-09-13T13:03:20;2.00;;;1.70;;
25249;SDS011;13201;51.148;13.738;2022-09-13T13:05:52;2.20;;;1.40;;
25249;SDS011;13201;51.148;13.738;2022-09-13T13:08:31;1.70;;;1.60;;
25249;SDS011;13201;51.148;13.738;2022-09-13T13:11:08;2.83;;;1.50;;
25249;SDS011;13201;51.148;13.738;2022-09-13T13:13:37;1.90;;;1.60;;
25249;SDS011;13201;51.148;13.738;2022-09-13T13:18:53;2.38;;;1.60;;
25249;SDS011;13201;51.148;13.738;2022-09-13T13:31:43;3.50;;;1.65;;
25249;SDS011;13201;51.148;13.738;2022-09-13T13:50:17;2.70;;;1.40;;
25249;SDS011;13201;51.148;13.738;2022-09-13T13:58:23;2.08;;;1.55;;
25249;SDS011;13201;51.148;13.738;2022-09-13T14:01:03;2.03;;;1.80;;
25249;SDS011;13201;51.148;13.738;2022-09-13T14:06:11;2.35;;;1.55;;
25249;SDS011;13201;51.148;13.738;2022-09-13T14:09:01;1.80;;;1.30;;
25249;SDS011;13201;51.148;13.738;2022-09-13T14:14:25;1.63;;;1.52;;
25249;SDS011;13201;51.148;13.738;2022-09-13T14:19:41;1.75;;;1.42;;
25249;SDS011;13201;51.148;13.738;2022-09-13T14:24:50;1.73;;;1.63;;
25249;SDS011;13201;51.148;13.738;2022-09-13T14:27:28;1.88;;;1.63;;
25249;SDS011;13201;51.148;13.738;2022-09-13T14:29:58;2.97;;;1.60;;
25249;SDS011;13201;51.148;13.738;2022-09-13T14:32:31;10.60;;;2.00;;
25249;SDS011;13201;51.148;13.738;2022-09-13T14:35:17;2.33;;;1.58;;
25249;SDS011;13201;51.148;13.738;2022-09-13T14:37:54;2.40;;;1.88;;
25249;SDS011;13201;51.148;13.738;2022-09-13T14:40:25;2.28;;;1.38;;
25249;SDS011;13201;51.148;13.738;2022-09-13T14:42:51;2.83;;;1.48;;
25249;SDS011;13201;51.148;13.738;2022-09-13T14:45:25;2.13;;;1.52;;
25249;SDS011;13201;51.148;13.738;2022-09-13T14:48:02;3.97;;;1.55;;
25249;SDS011;13201;51.148;13.738;2022-09-13T14:50:39;1.45;;;1.35;;
25249;SDS011;13201;51.148;13.738;2022-09-13T14:53:12;2.38;;;1.50;;
25249;SDS011;13201;51.148;13.738;2022-09-13T14:55:42;2.45;;;1.63;;
25249;SDS011;13201;51.148;13.738;2022-09-13T14:58:17;3.25;;;1.60;;
25249;SDS011;13201;51.148;13.738;2022-09-13T15:00:51;3.30;;;1.63;;
25249;SDS011;13201;51.148;13.738;2022-09-13T15:03:22;1.95;;;1.45;;
25249;SDS011;13201;51.148;13.738;2022-09-13T15:05:53;1.95;;;1.55;;
25249;SDS011;13201;51.148;13.738;2022-09-13T15:11:02;1.60;;;1.50;;
25249;SDS011;13201;51.148;13.738;2022-09-13T15:13:29;1.75;;;1.40;;
25249;SDS011;13201;51.148;13.738;2022-09-13T15:15:55;1.40;;;1.30;;
25249;SDS011;13201;51.148;13.738;2022-09-13T15:18:22;1.55;;;1.40;;
25249;SDS011;13201;51.148;13.738;2022-09-13T15:20:49;1.48;;;1.38;;
25249;SDS011;13201;51.148;13.738;2022-09-13T15:23:41;1.90;;;1.48;;
25249;SDS011;13201;51.148;13.738;2022-09-13T15:26:19;1.40;;;1.30;;
25249;SDS011;13201;51.148;13.738;2022-09-13T15:28:53;2.95;;;1.55;;
25249;SDS011;13201;51.148;13.738;2022-09-13T15:36:35;1.60;;;1.50;;
25249;SDS011;13201;51.148;13.738;2022-09-13T15:41:34;3.55;;;1.40;;
25249;SDS011;13201;51.148;13.738;2022-09-13T15:44:04;2.60;;;1.50;;
25249;SDS011;13201;51.148;13.738;2022-09-13T15:46:33;2.75;;;1.45;;
25249;SDS011;13201;51.148;13.738;2022-09-13T15:49:11;4.13;;;1.60;;
25249;SDS011;13201;51.148;13.738;2022-09-13T15:51:41;1.98;;;1.38;;
25249;SDS011;13201;51.148;13.738;2022-09-13T15:54:14;1.80;;;1.50;;
25249;SDS011;13201;51.148;13.738;2022-09-13T15:56:43;2.53;;;1.52;;
25249;SDS011;13201;51.148;13.738;2022-09-13T15:59:14;1.65;;;1.30;;
25249;SDS011;13201;51.148;13.738;2022-09-13T16:01:41;2.67;;;1.48;;
25249;SDS011;13201;51.148;13.738;2022-09-13T16:04:09;1.60;;;1.30;;
25249;SDS011;13201;51.148;13.738;2022-09-13T16:06:35;1.80;;;1.60;;
25249;SDS011;13201;51.148;13.738;2022-09-13T16:09:01;4.30;;;1.43;;
25249;SDS011;13201;51.148;13.738;2022-09-13T16:11:46;2.72;;;1.27;;
25249;SDS011;13201;51.148;13.738;2022-09-13T16:14:13;1.88;;;1.40;;
25249;SDS011;13201;51.148;13.738;2022-09-13T16:16:39;3.63;;;1.80;;
25249;SDS011;13201;51.148;13.738;2022-09-13T16:19:05;2.20;;;1.40;;
25249;SDS011;13201;51.148;13.738;2022-09-13T16:21:30;1.52;;;1.42;;
25249;SDS011;13201;51.148;13.738;2022-09-13T16:23:56;1.40;;;1.30;;
25249;SDS011;13201;51.148;13.738;2022-09-13T16:26:22;3.55;;;1.58;;
25249;SDS011;13201;51.148;13.738;2022-09-13T16:28:47;1.92;;;1.50;;
25249;SDS011;13201;51.148;13.738;2022-09-13T16:31:13;2.05;;;1.30;;
25249;SDS011;13201;51.148;13.738;2022-09-13T16:33:40;2.15;;;1.38;;
25249;SDS011;13201;51.148;13.738;2022-09-13T16:36:08;1.38;;;1.27;;
25249;SDS011;13201;51.148;13.738;2022-09-13T16:38:35;2.17;;;1.42;;
25249;SDS011;13201;51.148;13.738;2022-09-13T16:41:03;1.77;;;1.40;;
25249;SDS011;13201;51.148;13.738;2022-09-13T16:43:30;2.10;;;1.60;;
25249;SDS011;13201;51.148;13.738;2022-09-13T16:45:57;2.20;;;1.50;;
25249;SDS011;13201;51.148;13.738;2022-09-13T16:48:23;3.25;;;1.55;;
25249;SDS011;13201;51.148;13.738;2022-09-13T16:50:49;1.67;;;1.50;;
25249;SDS011;13201;51.148;13.738;2022-09-13T16:53:14;3.95;;;1.90;;
25249;SDS011;13201;51.148;13.738;2022-09-13T16:55:40;3.45;;;1.77;;
25249;SDS011;13201;51.148;13.738;2022-09-13T16:58:06;2.13;;;1.60;;
25249;SDS011;13201;51.148;13.738;2022-09-13T17:00:32;3.25;;;1.50;;
25249;SDS011;13201;51.148;13.738;2022-09-13T17:02:58;2.75;;;1.70;;
25249;SDS011;13201;51.148;13.738;2022-09-13T17:05:24;3.50;;;1.55;;
25249;SDS011;13201;51.148;13.738;2022-09-13T17:07:50;2.83;;;2.13;;
25249;SDS011;13201;51.148;13.738;2022-09-13T17:10:16;2.38;;;1.90;;
25249;SDS011;13201;51.148;13.738;2022-09-13T17:12:42;6.07;;;1.60;;
25249;SDS011;13201;51.148;13.738;2022-09-13T17:15:08;2.33;;;1.90;;
25249;SDS011;13201;51.148;13.738;2022-09-13T17:17:34;2.75;;;1.35;;
25249;SDS011;13201;51.148;13.738;2022-09-13T17:20:03;5.43;;;1.55;;
25249;SDS011;13201;51.148;13.738;2022-09-13T17:22:34;1.40;;;1.30;;
25249;SDS011;13201;51.148;13.738;2022-09-13T17:25:01;1.95;;;1.70;;
25249;SDS011;13201;51.148;13.738;2022-09-13T17:27:26;2.30;;;1.63;;
25249;SDS011;13201;51.148;13.738;2022-09-13T17:29:52;2.40;;;2.00;;
25249;SDS011;13201;51.148;13.738;2022-09-13T17:32:18;3.42;;;1.60;;
25249;SDS011;13201;51.148;13.738;2022-09-13T17:34:44;3.60;;;1.63;;
25249;SDS011;13201;51.148;13.738;2022-09-13T17:37:10;2.72;;;1.90;;
25249;SDS011;13201;51.148;13.738;2022-09-13T17:39:35;2.95;;;1.80;;
25249;SDS011;13201;51.148;13.738;2022-09-13T17:42:01;3.00;;;1.90;;
25249;SDS011;13201;51.148;13.738;2022-09-13T17:44:27;5.22;;;2.42;;
25249;SDS011;13201;51.148;13.738;2022-09-13T17:46:52;3.40;;;1.88;;
25249;SDS011;13201;51.148;13.738;2022-09-13T17:49:18;3.95;;;1.75;;
25249;SDS011;13201;51.148;13.738;2022-09-13T17:51:44;2.97;;;1.80;;
25249;SDS011;13201;51.148;13.738;2022-09-13T17:54:10;3.45;;;1.77;;
25249;SDS011;13201;51.148;13.738;2022-09-13T17:56:38;2.20;;;1.88;;
25249;SDS011;13201;51.148;13.738;2022-09-13T17:59:07;2.22;;;1.83;;
25249;SDS011;13201;51.148;13.738;2022-09-13T18:01:46;2.03;;;1.52;;
25249;SDS011;13201;51.148;13.738;2022-09-13T18:04:13;1.63;;;1.52;;
25249;SDS011;13201;51.148;13.738;2022-09-13T18:09:09;1.85;;;1.60;;
25249;SDS011;13201;51.148;13.738;2022-09-13T18:11:36;1.58;;;1.42;;
25249;SDS011;13201;51.148;13.738;2022-09-13T18:14:03;4.80;;;1.60;;
25249;SDS011;13201;51.148;13.738;2022-09-13T18:16:39;2.03;;;1.60;;
25249;SDS011;13201;51.148;13.738;2022-09-13T18:19:05;2.07;;;1.73;;
25249;SDS011;13201;51.148;13.738;2022-09-13T18:21:31;2.17;;;1.80;;
25249;SDS011;13201;51.148;13.738;2022-09-13T18:23:58;4.18;;;2.80;;
25249;SDS011;13201;51.148;13.738;2022-09-13T18:26:25;3.03;;;1.90;;
25249;SDS011;13201;51.148;13.738;2022-09-13T18:28:57;2.47;;;2.00;;
25249;SDS011;13201;51.148;13.738;2022-09-13T18:31:25;2.75;;;1.90;;
25249;SDS011;13201;51.148;13.738;2022-09-13T18:33:53;2.85;;;2.00;;
25249;SDS011;13201;51.148;13.738;2022-09-13T18:36:21;3.38;;;1.75;;
25249;SDS011;13201;51.148;13.738;2022-09-13T18:38:47;3.10;;;2.10;;
25249;SDS011;13201;51.148;13.738;2022-09-13T18:41:17;3.33;;;1.50;;
25249;SDS011;13201;51.148;13.738;2022-09-13T18:43:44;2.13;;;1.60;;
25249;SDS011;13201;51.148;13.738;2022-09-13T18:46:13;3.55;;;1.83;;
25249;SDS011;13201;51.148;13.738;2022-09-13T18:48:43;2.10;;;1.85;;
25249;SDS011;13201;51.148;13.738;2022-09-13T18:51:11;2.25;;;1.70;;
25249;SDS011;13201;51.148;13.738;2022-09-13T18:53:47;1.93;;;1.60;;
25249;SDS011;13201;51.148;13.738;2022-09-13T18:56:14;2.55;;;1.75;;
25249;SDS011;13201;51.148;13.738;2022-09-13T18:58:42;2.30;;;2.10;;
25249;SDS011;13201;51.148;13.738;2022-09-13T19:01:11;1.93;;;1.63;;